logo
Search for airport 
image banner adimage banner adimage banner ad
image banner ad

UASU - Urdzhar

Located in Urdzhar, Kazakhstan

ICAO - , IATA - UZR

Data provided by Airmate  

General information

Coordinates: N47°5'31" E81°40'6"
Elevation is 1702 feet MSL.
Magnetic variation is 5° East
View others Airports in East Kazakhstan

Operational data

Special qualification required
Current time UTC:
Current local time:
Weather at : - ( 0 km )
METAR: SBTT 242037Z 02013KT 5000 +TSRA BKN015 FEW020CB 25/24 Q1010
View NOTAMs / SUP AIP / TFR affecting this airport [VIEW]
Communications frequencies: [VIEW]

Runways:

RWY identifierQFULength (ft)Width (ft)SurfaceLDA (ft)
0772°6890115CONC+ASPH6890
25252°6890115CONC+ASPH6890

Airport contact information

Address: Urdzhar Kazakhstan

Satellite view of UASU